createdAt,value
2023-01-18T00:00:21.597Z,34.50
2023-01-18T00:02:49.192Z,34.50
2023-01-18T00:05:16.063Z,34.60
2023-01-18T00:07:42.795Z,34.60
2023-01-18T00:10:10.777Z,34.60
2023-01-18T00:12:37.480Z,34.50
2023-01-18T00:15:05.024Z,34.60
2023-01-18T00:17:31.642Z,34.50
2023-01-18T00:19:58.313Z,34.50
2023-01-18T00:22:24.883Z,34.60
2023-01-18T00:24:51.467Z,34.60
2023-01-18T00:27:18.078Z,34.60
2023-01-18T00:29:44.697Z,34.60
2023-01-18T00:32:11.270Z,34.60
2023-01-18T00:34:37.881Z,34.60
2023-01-18T00:37:04.457Z,34.60
2023-01-18T00:39:31.027Z,34.60
2023-01-18T00:42:16.187Z,34.60
2023-01-18T00:44:42.753Z,34.60
2023-01-18T00:47:09.306Z,34.60
2023-01-18T00:49:35.971Z,34.60
2023-01-18T00:52:02.602Z,34.60
2023-01-18T00:54:29.187Z,34.60
2023-01-18T00:56:55.805Z,34.60
2023-01-18T00:59:22.425Z,34.60
2023-01-18T01:01:49.217Z,34.60
2023-01-18T01:04:34.569Z,34.60
2023-01-18T01:07:01.165Z,34.60
2023-01-18T01:09:29.657Z,34.60
2023-01-18T01:12:16.594Z,34.60
2023-01-18T01:15:04.825Z,34.70
2023-01-18T01:17:51.861Z,34.70
2023-01-18T01:20:37.345Z,34.70
2023-01-18T01:23:30.422Z,34.70
2023-01-18T01:26:05.182Z,34.60
2023-01-18T01:28:32.320Z,34.70
2023-01-18T01:31:00.446Z,34.70
2023-01-18T01:33:28.393Z,34.70
2023-01-18T01:35:56.778Z,34.70
2023-01-18T01:38:23.530Z,34.70
2023-01-18T01:41:04.836Z,34.70
2023-01-18T01:43:55.575Z,34.70
2023-01-18T01:46:28.339Z,34.70
2023-01-18T01:49:19.605Z,34.70
2023-01-18T01:51:51.579Z,34.60
2023-01-18T01:54:23.033Z,34.70
2023-01-18T01:56:53.065Z,34.60
2023-01-18T01:59:20.092Z,34.60
2023-01-18T02:01:47.324Z,34.60
2023-01-18T02:04:14.008Z,34.60
2023-01-18T02:06:40.881Z,34.70
2023-01-18T02:09:12.252Z,34.70
2023-01-18T02:11:39.987Z,34.70
2023-01-18T02:14:15.636Z,34.70
2023-01-18T02:17:13.791Z,34.70
2023-01-18T02:19:48.116Z,34.70
2023-01-18T02:22:24.160Z,34.60
2023-01-18T02:25:18.637Z,34.70
2023-01-18T02:28:01.871Z,34.60
2023-01-18T02:30:34.491Z,34.70
2023-01-18T02:33:07.139Z,34.60
2023-01-18T02:35:56.884Z,34.60
2023-01-18T02:38:33.170Z,34.60
2023-01-18T02:41:58.004Z,34.60
2023-01-18T02:44:55.440Z,34.60
2023-01-18T02:47:23.863Z,34.60
2023-01-18T02:49:50.476Z,34.60
2023-01-18T02:52:50.890Z,34.60
2023-01-18T02:55:47.202Z,34.70
2023-01-18T02:58:24.113Z,34.70
2023-01-18T03:00:59.988Z,34.70
2023-01-18T03:03:28.141Z,34.70
2023-01-18T03:06:00.089Z,34.70
2023-01-18T03:08:41.072Z,34.70
2023-01-18T03:11:14.113Z,34.70
2023-01-18T03:14:10.818Z,34.70
2023-01-18T03:16:57.797Z,34.70
2023-01-18T03:19:50.767Z,34.70
2023-01-18T03:22:18.513Z,34.70
2023-01-18T03:24:45.924Z,34.70
2023-01-18T03:27:32.188Z,34.60
2023-01-18T03:30:17.779Z,34.70
2023-01-18T03:33:03.307Z,34.70
2023-01-18T03:35:31.984Z,35.40
2023-01-18T03:37:59.040Z,34.70
2023-01-18T03:40:29.602Z,34.70
2023-01-18T03:43:08.204Z,34.70
2023-01-18T03:45:39.950Z,34.70
2023-01-18T03:48:09.229Z,34.70
2023-01-18T03:50:57.150Z,34.70
2023-01-18T03:53:45.657Z,34.70
2023-01-18T03:56:24.462Z,34.70
2023-01-18T03:58:54.146Z,34.70
2023-01-18T04:01:21.225Z,34.70
2023-01-18T04:03:47.881Z,34.70
2023-01-18T04:06:14.532Z,34.70
2023-01-18T04:08:41.111Z,34.70
2023-01-18T04:11:07.821Z,34.70
2023-01-18T04:13:34.387Z,34.70
2023-01-18T04:16:01.010Z,34.70
2023-01-18T04:18:27.695Z,34.70
2023-01-18T04:20:56.364Z,34.70
2023-01-18T04:23:23.937Z,34.70
2023-01-18T04:25:51.472Z,34.70
2023-01-18T04:28:25.293Z,34.70
2023-01-18T04:30:56.685Z,34.80
2023-01-18T04:33:26.508Z,34.70
2023-01-18T04:35:56.462Z,34.80
2023-01-18T04:38:23.479Z,34.80
2023-01-18T04:40:50.517Z,34.80
2023-01-18T04:43:17.172Z,34.70
2023-01-18T04:45:51.794Z,34.80
2023-01-18T04:48:19.075Z,34.70
2023-01-18T04:50:46.502Z,34.70
2023-01-18T04:53:13.141Z,34.70
2023-01-18T04:55:39.771Z,34.80
2023-01-18T04:58:06.359Z,34.80
2023-01-18T05:00:33.097Z,34.80
2023-01-18T05:03:00.412Z,34.90
2023-01-18T05:05:28.255Z,34.90
2023-01-18T05:07:54.827Z,35.00
2023-01-18T05:10:21.447Z,34.90
2023-01-18T05:12:48.046Z,35.00
2023-01-18T05:15:14.791Z,35.00
2023-01-18T05:17:42.095Z,35.00
2023-01-18T05:20:10.229Z,35.00
2023-01-18T05:22:37.201Z,35.00
2023-01-18T05:25:05.653Z,35.00
2023-01-18T05:27:32.882Z,34.80
2023-01-18T05:29:59.684Z,34.90
2023-01-18T05:32:26.316Z,34.90
2023-01-18T05:34:52.913Z,34.90
2023-01-18T05:37:19.557Z,34.90
2023-01-18T05:39:46.215Z,35.00
2023-01-18T05:42:12.999Z,34.80
2023-01-18T05:44:39.674Z,34.80
2023-01-18T05:47:06.371Z,34.80
2023-01-18T05:49:32.960Z,34.70
2023-01-18T05:51:59.789Z,34.80
2023-01-18T05:54:26.436Z,34.70
2023-01-18T05:56:53.050Z,34.70
2023-01-18T05:59:19.702Z,34.60
2023-01-18T06:01:46.403Z,34.60
2023-01-18T06:04:13.041Z,34.60
2023-01-18T06:06:39.682Z,34.60
2023-01-18T06:09:06.514Z,34.60
2023-01-18T06:11:33.189Z,34.70
2023-01-18T06:13:59.948Z,34.60
2023-01-18T06:16:26.931Z,34.60
2023-01-18T06:18:53.572Z,34.60
2023-01-18T06:21:20.227Z,34.50
2023-01-18T06:23:46.961Z,34.60
2023-01-18T06:26:13.710Z,34.60
2023-01-18T06:28:40.343Z,34.60
2023-01-18T06:31:08.376Z,34.50
2023-01-18T06:33:35.155Z,34.50
2023-01-18T06:36:01.981Z,34.60
2023-01-18T06:38:29.693Z,34.60
2023-01-18T06:40:56.302Z,34.60
2023-01-18T06:43:23.295Z,34.50
2023-01-18T06:45:56.626Z,34.40
2023-01-18T06:48:24.476Z,34.40
2023-01-18T06:50:55.014Z,34.40
2023-01-18T06:53:21.970Z,34.40
2023-01-18T06:56:01.652Z,34.50
2023-01-18T06:58:31.035Z,34.40
2023-01-18T07:00:59.818Z,34.40
2023-01-18T07:03:27.546Z,34.40
2023-01-18T07:05:58.788Z,34.40
2023-01-18T07:08:27.020Z,34.40
2023-01-18T07:10:54.264Z,34.30
2023-01-18T07:13:21.824Z,34.30
2023-01-18T07:15:54.313Z,34.30
2023-01-18T07:18:20.908Z,34.30
2023-01-18T07:20:47.569Z,34.20
2023-01-18T07:23:14.134Z,34.20
2023-01-18T07:25:40.713Z,33.90
2023-01-18T07:28:07.418Z,31.30
2023-01-18T07:30:34.074Z,31.10
2023-01-18T07:33:01.005Z,31.50
2023-01-18T07:35:27.928Z,31.60
2023-01-18T07:37:54.638Z,31.90
2023-01-18T07:40:22.181Z,32.00
2023-01-18T07:42:49.932Z,32.20
2023-01-18T07:45:16.562Z,32.40
2023-01-18T07:47:46.033Z,32.60
2023-01-18T07:50:14.026Z,32.70
2023-01-18T07:52:40.653Z,32.80
2023-01-18T07:55:07.620Z,32.80
2023-01-18T07:57:34.451Z,32.90
2023-01-18T08:00:01.084Z,33.00
2023-01-18T08:02:27.710Z,33.00
2023-01-18T08:04:54.452Z,33.00
2023-01-18T08:07:21.071Z,33.10
2023-01-18T08:09:47.653Z,33.10
2023-01-18T08:12:18.022Z,33.20
2023-01-18T08:14:45.939Z,33.20
2023-01-18T08:17:12.723Z,33.10
2023-01-18T08:19:39.498Z,33.00
2023-01-18T08:22:07.831Z,33.10
2023-01-18T08:24:34.567Z,33.10
2023-01-18T08:27:01.328Z,33.00
2023-01-18T08:29:27.936Z,33.10
2023-01-18T08:31:54.607Z,33.20
2023-01-18T08:34:21.832Z,33.20
2023-01-18T08:36:48.529Z,33.10
2023-01-18T08:39:15.134Z,33.20
2023-01-18T08:41:41.883Z,33.10
2023-01-18T08:44:08.480Z,33.20
2023-01-18T08:46:36.391Z,33.20
2023-01-18T08:49:05.631Z,33.30
2023-01-18T08:51:32.582Z,33.20
2023-01-18T08:53:59.795Z,33.20
2023-01-18T08:56:26.869Z,33.30
2023-01-18T08:58:53.951Z,33.40
2023-01-18T09:01:23.196Z,33.40
2023-01-18T09:03:50.603Z,33.40
2023-01-18T09:06:17.545Z,33.50
2023-01-18T09:08:47.366Z,33.50
2023-01-18T09:11:14.521Z,33.40
2023-01-18T09:13:58.469Z,33.40
2023-01-18T09:16:26.470Z,33.50
2023-01-18T09:18:55.274Z,33.50
2023-01-18T09:21:21.907Z,33.40
2023-01-18T09:23:49.111Z,33.60
2023-01-18T09:26:18.208Z,33.60
2023-01-18T09:28:46.933Z,33.50
2023-01-18T09:31:13.604Z,33.50
2023-01-18T09:33:51.140Z,33.50
2023-01-18T09:36:21.387Z,33.60
2023-01-18T09:38:48.060Z,33.50
2023-01-18T09:41:42.908Z,33.60
2023-01-18T09:44:16.676Z,33.50
2023-01-18T09:46:44.126Z,33.50
2023-01-18T09:49:20.359Z,33.50
2023-01-18T09:52:07.706Z,33.50
2023-01-18T09:55:03.704Z,33.50
2023-01-18T09:57:51.336Z,33.50
2023-01-18T10:00:24.201Z,33.40
2023-01-18T10:02:55.282Z,33.50
2023-01-18T10:05:27.009Z,33.50
2023-01-18T10:08:05.887Z,33.40
2023-01-18T10:10:39.189Z,34.00
2023-01-18T10:13:27.630Z,33.20
2023-01-18T10:15:54.431Z,33.30
2023-01-18T10:18:21.037Z,33.20
2023-01-18T10:20:50.653Z,33.10
2023-01-18T10:23:31.920Z,33.10
2023-01-18T10:26:21.583Z,32.90
2023-01-18T10:29:06.849Z,32.80
2023-01-18T10:31:55.733Z,32.70
2023-01-18T10:34:26.374Z,32.60
2023-01-18T10:37:06.916Z,32.70
2023-01-18T10:39:37.678Z,32.60
2023-01-18T10:42:13.376Z,32.60
2023-01-18T10:44:41.107Z,32.50
2023-01-18T10:47:07.839Z,32.50
2023-01-18T10:49:35.881Z,32.40
2023-01-18T10:52:37.817Z,32.40
2023-01-18T10:55:09.324Z,32.40
2023-01-18T10:57:52.140Z,32.30
2023-01-18T11:00:23.941Z,32.30
2023-01-18T11:02:52.955Z,32.30
2023-01-18T11:05:27.205Z,32.30
2023-01-18T11:08:13.783Z,32.20
2023-01-18T11:10:42.624Z,32.20
2023-01-18T11:13:33.217Z,32.30
2023-01-18T11:16:18.505Z,32.10
2023-01-18T11:18:59.459Z,32.20
2023-01-18T11:21:41.129Z,32.10
2023-01-18T11:24:13.338Z,32.10
2023-01-18T11:27:11.868Z,32.10
2023-01-18T11:29:43.181Z,32.20
2023-01-18T11:32:24.311Z,32.10
2023-01-18T11:34:56.709Z,32.10
2023-01-18T11:37:36.166Z,32.00
2023-01-18T11:40:27.980Z,32.00
2023-01-18T11:43:11.447Z,32.00
2023-01-18T11:45:48.062Z,31.90
2023-01-18T11:48:48.477Z,31.80
2023-01-18T11:51:50.114Z,32.20
2023-01-18T11:54:58.552Z,31.90
2023-01-18T11:57:27.894Z,31.80
2023-01-18T11:59:54.764Z,32.00
2023-01-18T12:02:26.901Z,31.90
2023-01-18T12:05:12.180Z,31.70
2023-01-18T12:08:01.140Z,31.80
2023-01-18T12:10:52.176Z,31.80
2023-01-18T12:13:27.715Z,31.80
2023-01-18T12:16:08.229Z,31.60
2023-01-18T12:19:00.057Z,31.70
2023-01-18T12:21:46.059Z,31.70
2023-01-18T12:24:24.627Z,31.60
2023-01-18T12:26:56.153Z,31.60
2023-01-18T12:29:53.578Z,31.70
2023-01-18T12:32:38.171Z,31.60
2023-01-18T12:35:25.030Z,31.40
2023-01-18T12:37:57.999Z,31.40
2023-01-18T12:40:39.730Z,31.40
2023-01-18T12:43:31.636Z,31.40
2023-01-18T12:46:07.291Z,31.40
2023-01-18T12:48:51.467Z,31.40
2023-01-18T12:51:22.687Z,31.40
2023-01-18T12:54:14.237Z,31.50
2023-01-18T12:56:46.293Z,31.40
2023-01-18T12:59:18.626Z,31.50
2023-01-18T13:02:11.648Z,31.50
2023-01-18T13:04:52.644Z,31.50
2023-01-18T13:07:26.672Z,31.50
2023-01-18T13:09:54.456Z,31.50
2023-01-18T13:12:21.439Z,31.50
2023-01-18T13:15:15.579Z,32.30
2023-01-18T13:17:52.319Z,31.60
2023-01-18T13:20:34.192Z,31.60
2023-01-18T13:23:24.903Z,31.50
2023-01-18T13:26:14.351Z,31.70
2023-01-18T13:28:41.305Z,31.60
2023-01-18T13:31:08.164Z,32.20
2023-01-18T13:33:44.757Z,31.50
2023-01-18T13:36:21.596Z,31.50
2023-01-18T13:38:58.443Z,31.50
2023-01-18T13:41:28.106Z,31.50
2023-01-18T13:44:01.207Z,31.40
2023-01-18T13:46:29.254Z,31.40
2023-01-18T13:49:02.058Z,31.50
2023-01-18T13:51:40.984Z,31.50
2023-01-18T13:54:19.065Z,31.40
2023-01-18T13:57:00.883Z,31.40
2023-01-18T13:59:32.551Z,31.40
2023-01-18T14:02:33.995Z,31.40
2023-01-18T14:05:07.164Z,31.40
2023-01-18T14:07:49.179Z,31.40
2023-01-18T14:10:44.800Z,31.40
2023-01-18T14:13:17.436Z,31.30
2023-01-18T14:15:48.266Z,31.30
2023-01-18T14:18:26.575Z,31.30
2023-01-18T14:20:58.948Z,31.20
2023-01-18T14:23:54.072Z,31.20
2023-01-18T14:26:22.338Z,31.10
2023-01-18T14:28:51.769Z,31.20
2023-01-18T14:31:29.490Z,31.20
2023-01-18T14:33:56.285Z,31.20
2023-01-18T14:36:28.555Z,31.20
2023-01-18T14:39:17.076Z,31.10
2023-01-18T14:41:52.065Z,31.20
2023-01-18T14:44:20.926Z,31.20
2023-01-18T14:46:53.803Z,31.20
2023-01-18T14:49:28.873Z,31.20
2023-01-18T14:51:56.070Z,31.20
2023-01-18T14:54:26.357Z,31.30
2023-01-18T14:57:01.310Z,31.20
2023-01-18T14:59:33.200Z,31.10
2023-01-18T15:02:02.782Z,31.20
2023-01-18T15:04:31.408Z,31.20
2023-01-18T15:07:13.676Z,31.10
2023-01-18T15:09:42.214Z,31.00
2023-01-18T15:12:11.433Z,31.10
2023-01-18T15:14:43.620Z,31.10
2023-01-18T15:17:21.204Z,30.90
2023-01-18T15:19:52.992Z,30.90
2023-01-18T15:22:24.005Z,30.90
2023-01-18T15:24:50.749Z,30.70
2023-01-18T15:27:20.064Z,30.40
2023-01-18T15:29:54.079Z,30.30
2023-01-18T15:32:22.003Z,30.30
2023-01-18T15:34:50.823Z,30.40
2023-01-18T15:37:33.073Z,30.50
2023-01-18T15:40:15.076Z,30.40
2023-01-18T15:42:59.724Z,30.60
2023-01-18T15:45:38.533Z,30.60
2023-01-18T15:48:18.631Z,30.60
2023-01-18T15:50:52.103Z,30.50
2023-01-18T15:53:29.293Z,30.60
2023-01-18T15:56:17.503Z,30.60
2023-01-18T15:58:55.621Z,30.70
2023-01-18T16:01:31.546Z,30.60
2023-01-18T16:04:22.648Z,30.40
2023-01-18T16:06:49.339Z,30.50
2023-01-18T16:09:18.218Z,30.50
2023-01-18T16:11:59.260Z,30.60
2023-01-18T16:14:28.583Z,30.50
2023-01-18T16:17:19.769Z,30.60
2023-01-18T16:19:52.683Z,30.70
2023-01-18T16:22:26.461Z,30.80
2023-01-18T16:24:58.300Z,30.80
2023-01-18T16:27:27.269Z,30.80
2023-01-18T16:29:58.249Z,30.90
2023-01-18T16:32:24.877Z,31.00
2023-01-18T16:34:55.306Z,31.10
2023-01-18T16:37:22.300Z,31.10
2023-01-18T16:39:49.680Z,31.20
2023-01-18T16:42:18.227Z,31.20
2023-01-18T16:44:47.698Z,31.30
2023-01-18T16:47:16.502Z,31.40
2023-01-18T16:49:44.101Z,31.50
2023-01-18T16:52:14.982Z,31.60
2023-01-18T16:54:45.644Z,31.70
2023-01-18T16:57:23.153Z,31.90
2023-01-18T16:59:50.422Z,32.10
2023-01-18T17:02:17.186Z,32.20
2023-01-18T17:04:45.319Z,32.20
2023-01-18T17:07:12.356Z,32.30
2023-01-18T17:09:48.034Z,32.40
2023-01-18T17:12:15.846Z,32.30
2023-01-18T17:14:42.533Z,32.30
2023-01-18T17:17:10.405Z,32.40
2023-01-18T17:19:37.922Z,32.40
2023-01-18T17:22:06.306Z,32.50
2023-01-18T17:24:33.072Z,32.50
2023-01-18T17:26:59.793Z,32.50
2023-01-18T17:29:26.461Z,32.50
2023-01-18T17:31:53.454Z,32.50
2023-01-18T17:34:28.123Z,32.50
2023-01-18T17:36:55.997Z,32.50
2023-01-18T17:39:24.887Z,32.50
2023-01-18T17:41:58.702Z,32.40
2023-01-18T17:44:36.804Z,32.40
2023-01-18T17:47:03.958Z,32.50
2023-01-18T17:49:30.582Z,32.70
2023-01-18T17:51:57.159Z,32.50
2023-01-18T17:54:23.778Z,32.50
2023-01-18T17:56:50.594Z,32.60
2023-01-18T17:59:17.186Z,32.50
2023-01-18T18:01:43.906Z,32.60
2023-01-18T18:04:10.581Z,32.60
2023-01-18T18:06:40.398Z,32.60
2023-01-18T18:09:12.696Z,32.60
2023-01-18T18:11:39.300Z,32.60
2023-01-18T18:14:06.047Z,32.50
2023-01-18T18:16:34.451Z,32.50
2023-01-18T18:19:07.558Z,33.30
2023-01-18T18:21:34.226Z,32.50
2023-01-18T18:24:01.033Z,32.60
2023-01-18T18:26:27.630Z,32.50
2023-01-18T18:28:54.244Z,32.60
2023-01-18T18:31:21.201Z,32.50
2023-01-18T18:33:47.834Z,32.60
2023-01-18T18:36:14.429Z,32.50
2023-01-18T18:38:41.089Z,32.60
2023-01-18T18:41:08.801Z,32.50
2023-01-18T18:43:35.987Z,32.50
2023-01-18T18:46:02.737Z,32.50
2023-01-18T18:48:29.931Z,32.50
2023-01-18T18:50:56.623Z,32.50
2023-01-18T18:53:29.584Z,32.50
2023-01-18T18:56:06.826Z,32.60
2023-01-18T18:58:37.105Z,32.50
2023-01-18T19:01:04.906Z,32.50
2023-01-18T19:03:32.031Z,32.50
2023-01-18T19:05:58.624Z,32.50
2023-01-18T19:08:25.233Z,32.50
2023-01-18T19:10:51.938Z,32.50
2023-01-18T19:13:19.379Z,32.50
2023-01-18T19:15:47.598Z,32.60
2023-01-18T19:18:15.232Z,32.60
2023-01-18T19:20:42.053Z,32.60
2023-01-18T19:23:10.336Z,32.60
2023-01-18T19:25:40.540Z,32.50
2023-01-18T19:28:07.528Z,32.50
2023-01-18T19:30:34.433Z,32.50
2023-01-18T19:33:02.728Z,32.50
2023-01-18T19:35:31.041Z,32.50
2023-01-18T19:38:00.732Z,32.50
2023-01-18T19:40:27.372Z,32.50
2023-01-18T19:42:54.489Z,32.50
2023-01-18T19:45:27.929Z,32.60
2023-01-18T19:47:56.605Z,32.50
2023-01-18T19:50:23.782Z,32.60
2023-01-18T19:52:50.939Z,32.60
2023-01-18T19:55:17.571Z,32.60
2023-01-18T19:57:44.196Z,32.70
2023-01-18T20:00:11.410Z,33.30
2023-01-18T20:02:39.816Z,32.60
2023-01-18T20:05:07.456Z,32.70
2023-01-18T20:07:34.079Z,32.70
2023-01-18T20:10:00.714Z,32.70
2023-01-18T20:12:31.110Z,33.50
2023-01-18T20:14:58.001Z,32.80
2023-01-18T20:17:24.723Z,32.80
2023-01-18T20:19:54.004Z,33.50
2023-01-18T20:22:21.906Z,33.00
2023-01-18T20:24:48.990Z,33.10
2023-01-18T20:27:17.097Z,33.10
2023-01-18T20:29:44.458Z,33.30
2023-01-18T20:32:16.935Z,33.20
2023-01-18T20:34:47.716Z,33.30
2023-01-18T20:37:16.313Z,33.40
2023-01-18T20:39:42.977Z,33.40
2023-01-18T20:42:09.744Z,33.50
2023-01-18T20:44:36.960Z,33.60
2023-01-18T20:47:04.176Z,33.60
2023-01-18T20:49:37.746Z,33.70
2023-01-18T20:52:06.666Z,33.70
2023-01-18T20:54:34.851Z,33.80
2023-01-18T20:57:02.733Z,33.80
2023-01-18T20:59:29.355Z,33.90
2023-01-18T21:01:56.150Z,34.00
2023-01-18T21:04:22.881Z,34.00
2023-01-18T21:06:49.772Z,34.80
2023-01-18T21:09:16.827Z,34.20
2023-01-18T21:11:43.834Z,34.10
2023-01-18T21:14:10.790Z,34.10
2023-01-18T21:16:37.499Z,34.10
2023-01-18T21:19:04.443Z,34.10
2023-01-18T21:21:31.834Z,34.20
2023-01-18T21:23:58.981Z,34.20
2023-01-18T21:26:25.703Z,34.30
2023-01-18T21:28:52.603Z,34.40
2023-01-18T21:31:19.651Z,34.40
2023-01-18T21:33:46.486Z,34.40
2023-01-18T21:36:15.600Z,34.50
2023-01-18T21:38:42.259Z,34.50
2023-01-18T21:41:28.049Z,34.50
2023-01-18T21:44:13.571Z,34.50
2023-01-18T21:46:47.937Z,34.50
2023-01-18T21:49:47.221Z,34.60
2023-01-18T21:52:38.103Z,34.60
2023-01-18T21:55:05.008Z,34.50
2023-01-18T21:57:31.573Z,34.60
2023-01-18T21:59:58.183Z,34.60
2023-01-18T22:02:25.051Z,34.70
2023-01-18T22:05:00.934Z,34.70
2023-01-18T22:07:29.841Z,34.70
2023-01-18T22:10:04.687Z,34.80
2023-01-18T22:12:33.324Z,34.80
2023-01-18T22:15:01.854Z,34.70
2023-01-18T22:17:28.811Z,34.90
2023-01-18T22:19:55.590Z,34.80
2023-01-18T22:22:22.209Z,34.80
2023-01-18T22:24:48.799Z,34.80
2023-01-18T22:27:15.419Z,34.90
2023-01-18T22:29:41.977Z,34.90
2023-01-18T22:32:08.549Z,34.90
2023-01-18T22:34:35.177Z,34.90
2023-01-18T22:37:03.103Z,34.90
2023-01-18T22:39:29.706Z,34.90
2023-01-18T22:41:56.374Z,34.90
2023-01-18T22:44:23.072Z,34.80
2023-01-18T22:46:49.638Z,34.90
2023-01-18T22:49:16.325Z,34.90
2023-01-18T22:51:42.923Z,34.90
2023-01-18T22:54:09.545Z,34.90
2023-01-18T22:56:36.440Z,35.00
2023-01-18T22:59:03.036Z,35.00
2023-01-18T23:01:31.643Z,34.90
2023-01-18T23:04:00.398Z,35.00
2023-01-18T23:06:28.830Z,35.00
2023-01-18T23:08:56.264Z,35.00
2023-01-18T23:11:29.095Z,35.00
2023-01-18T23:14:16.467Z,35.10
2023-01-18T23:17:02.472Z,35.00
2023-01-18T23:19:30.618Z,35.10
2023-01-18T23:21:58.009Z,35.10
2023-01-18T23:24:25.198Z,35.00
2023-01-18T23:26:52.007Z,35.10
2023-01-18T23:29:19.886Z,35.00
2023-01-18T23:31:46.773Z,35.00
2023-01-18T23:34:13.453Z,35.10
2023-01-18T23:36:40.113Z,35.10
2023-01-18T23:39:25.740Z,35.10
2023-01-18T23:42:11.231Z,35.20
2023-01-18T23:44:56.822Z,35.10
2023-01-18T23:47:42.232Z,35.10
2023-01-18T23:50:28.223Z,35.10
2023-01-18T23:53:13.661Z,35.70
2023-01-18T23:55:41.409Z,35.10
2023-01-18T23:58:08.151Z,35.10
